Huvudsida
METAR-TAF:

METAR-TAF

Flygplatser :

Kristianstad, Sverige

Kristianstad Österlen Airport

latitud: 55-55N, longitud: 014-05E, höjd: 23 m

Aktuellt väderrapport

Denna rapport gjordes för 26 minuter sedan, klockan 14:50 UTC
Vind 17 kt från väst/nordväst
Temperatur 15°C
Tryck 1017 hPa
Sikt 10 km eller mer

METAR: ESMK 211450Z AUTO 29017KT 9999 NCD 15/// Q1017

Tid: 17:16 (15:16 UTC)

Väderprognos

Denna rapport gjordes för 25 timmar och 14 minuter sedan, klockan 14:02 UTC
Prognos gäller från 20 kl. 15 UTC till 20 kl. 18 UTC
Vind 12 kt från sydväst
Sikt 10 km eller mer
Inga moln under 1 500 m eller inga cumulonimbus

TAF: ESMK 201402Z 2015/2018 22012KT CAVOK

Aktuella väderrapporter och prognoser från 4000 flygplatser (METAR- och TAF-rapporter).

De tillgängliga stationerna syns som gula och röda prickar på kartan.

För musen över prickarna för att se namnen på stationerna.

Klicka sedan för att få väderrapporter och prognoser.

För att ändra kartan: Klicka på de gröna knapparna med ett svart kors på för att zooma in; den gröna knappen med ett streck på för att zooma ut; eller på de gröna pilarna för angränsande kartor.


METAR-TAF: